createdAt,value
2023-04-01T00:02:27.493Z,95168.04
2023-04-01T00:04:58.498Z,95165.73
2023-04-01T00:07:30.773Z,95153.15
2023-04-01T00:10:01.539Z,95146.97
2023-04-01T00:12:31.878Z,95142.90
2023-04-01T00:15:02.837Z,95141.87
2023-04-01T00:17:33.104Z,95142.05
2023-04-01T00:20:04.224Z,95140.39
2023-04-01T00:22:35.402Z,95130.44
2023-04-01T00:25:06.680Z,95125.48
2023-04-01T00:27:36.714Z,95116.98
2023-04-01T00:30:08.730Z,95112.80
2023-04-01T00:32:39.191Z,95110.90
2023-04-01T00:35:09.640Z,95114.06
2023-04-01T00:37:40.833Z,95116.14
2023-04-01T00:40:29.523Z,95108.58
2023-04-01T00:43:00.400Z,95099.94
2023-04-01T00:45:42.917Z,95102.73
2023-04-01T00:48:17.607Z,95104.56
2023-04-01T00:51:04.126Z,95103.05
2023-04-01T00:53:38.036Z,95102.26
2023-04-01T00:56:38.329Z,95098.37
2023-04-01T00:59:15.861Z,95095.02
2023-04-01T01:01:46.538Z,95092.01
2023-04-01T01:04:31.664Z,95092.33
2023-04-01T01:07:20.084Z,95091.52
2023-04-01T01:10:14.956Z,95095.02
2023-04-01T01:12:45.450Z,95099.02
2023-04-01T01:15:24.056Z,95103.90
2023-04-01T01:18:18.426Z,95110.09
2023-04-01T01:21:02.663Z,95111.29
2023-04-01T01:23:44.668Z,95103.60
2023-04-01T01:26:36.454Z,95101.58
2023-04-01T01:29:28.412Z,95096.89
2023-04-01T01:32:10.844Z,95098.85
2023-04-01T01:34:49.052Z,95097.88
2023-04-01T01:37:22.552Z,95094.52
2023-04-01T01:40:05.024Z,95088.50
2023-04-01T01:42:40.120Z,95083.66
2023-04-01T01:45:13.172Z,95082.45
2023-04-01T01:47:44.316Z,95079.55
2023-04-01T01:50:16.792Z,95081.58
2023-04-01T01:52:46.825Z,95084.30
2023-04-01T01:55:31.499Z,95086.94
2023-04-01T01:58:23.664Z,95082.69
2023-04-01T02:01:06.564Z,95083.83
2023-04-01T02:03:39.141Z,95075.09
2023-04-01T02:06:12.450Z,95072.98
2023-04-01T02:08:53.198Z,95064.81
2023-04-01T02:11:34.084Z,95061.55
2023-04-01T02:14:22.664Z,95051.44
2023-04-01T02:17:03.796Z,95057.54
2023-04-01T02:19:52.364Z,95057.38
2023-04-01T02:22:31.225Z,95054.36
2023-04-01T02:25:09.709Z,95049.98
2023-04-01T02:27:41.743Z,95052.19
2023-04-01T02:30:12.178Z,95046.79
2023-04-01T02:32:42.858Z,95043.68
2023-04-01T02:35:15.280Z,95038.37
2023-04-01T02:37:49.932Z,95035.17
2023-04-01T02:40:21.667Z,95026.23
2023-04-01T02:42:52.252Z,95022.18
2023-04-01T02:45:22.398Z,95015.54
2023-04-01T02:47:52.522Z,95018.99
2023-04-01T02:50:23.066Z,95016.02
2023-04-01T02:52:53.048Z,95024.90
2023-04-01T02:55:23.253Z,95034.33
2023-04-01T02:57:53.722Z,95028.89
2023-04-01T03:00:23.862Z,95021.42
2023-04-01T03:02:54.827Z,95011.79
2023-04-01T03:05:25.419Z,95008.15
2023-04-01T03:07:55.927Z,95004.77
2023-04-01T03:10:27.002Z,94998.86
2023-04-01T03:12:57.335Z,95002.01
2023-04-01T03:15:27.367Z,95005.35
2023-04-01T03:17:56.978Z,95002.73
2023-04-01T03:20:29.461Z,95006.84
2023-04-01T03:22:59.833Z,95009.80
2023-04-01T03:25:32.266Z,95014.18
2023-04-01T03:28:03.626Z,95016.47
2023-04-01T03:30:35.159Z,95014.88
2023-04-01T03:33:04.471Z,95013.52
2023-04-01T03:35:37.435Z,95021.70
2023-04-01T03:38:07.535Z,95021.31
2023-04-01T03:40:39.700Z,95017.04
2023-04-01T03:43:11.385Z,95023.41
2023-04-01T03:45:52.546Z,95024.75
2023-04-01T03:48:23.270Z,95023.17
2023-04-01T03:50:53.782Z,95018.95
2023-04-01T03:53:23.900Z,95024.13
2023-04-01T03:55:54.619Z,95026.67
2023-04-01T03:58:24.781Z,95026.17
2023-04-01T04:00:55.073Z,95027.48
2023-04-01T04:03:24.928Z,95022.33
2023-04-01T04:05:57.149Z,95023.11
2023-04-01T04:08:27.345Z,95027.59
2023-04-01T04:10:58.053Z,95027.65
2023-04-01T04:13:28.528Z,95025.14
2023-04-01T04:16:05.037Z,95030.81
2023-04-01T04:18:36.170Z,95027.73
2023-04-01T04:21:06.799Z,95022.63
2023-04-01T04:23:38.710Z,95024.98
2023-04-01T04:26:11.532Z,95023.57
2023-04-01T04:28:42.005Z,95024.78
2023-04-01T04:31:12.398Z,95022.30
2023-04-01T04:33:44.743Z,95022.20
2023-04-01T04:36:15.859Z,95019.66
2023-04-01T04:38:47.147Z,95020.13
2023-04-01T04:41:19.450Z,95019.42
2023-04-01T04:43:57.489Z,95020.86
2023-04-01T04:46:28.311Z,95020.52
2023-04-01T04:49:03.410Z,95012.30
2023-04-01T04:51:35.909Z,95011.44
2023-04-01T04:54:06.364Z,95015.80
2023-04-01T04:56:49.204Z,95013.57
2023-04-01T04:59:19.616Z,95013.60
2023-04-01T05:02:00.311Z,95008.16
2023-04-01T05:04:35.565Z,95006.91
2023-04-01T05:07:06.813Z,95006.21
2023-04-01T05:09:37.171Z,95007.49
2023-04-01T05:12:07.622Z,95010.81
2023-04-01T05:14:58.307Z,95007.34
2023-04-01T05:17:28.645Z,95001.95
2023-04-01T05:20:01.369Z,95002.04
2023-04-01T05:22:32.433Z,95004.79
2023-04-01T05:25:01.464Z,94994.06
2023-04-01T05:27:33.264Z,94993.23
2023-04-01T05:30:04.544Z,94987.30
2023-04-01T05:32:53.522Z,94984.44
2023-04-01T05:35:24.674Z,94985.36
2023-04-01T05:37:57.248Z,94980.43
2023-04-01T05:40:26.798Z,94981.02
2023-04-01T05:42:58.349Z,94981.02
2023-04-01T05:45:29.307Z,94976.59
2023-04-01T05:48:29.934Z,94975.66
2023-04-01T05:51:00.547Z,94976.64
2023-04-01T05:53:31.259Z,94980.02
2023-04-01T05:56:06.084Z,94988.02
2023-04-01T05:58:38.944Z,94987.45
2023-04-01T06:01:16.291Z,94988.70
2023-04-01T06:03:47.982Z,94984.98
2023-04-01T06:06:26.681Z,94986.19
2023-04-01T06:09:03.436Z,94985.08
2023-04-01T06:11:52.374Z,94990.56
2023-04-01T06:14:29.833Z,94992.48
2023-04-01T06:17:23.862Z,94987.25
2023-04-01T06:20:31.897Z,94986.58
2023-04-01T06:23:17.401Z,94982.45
2023-04-01T06:25:56.809Z,94974.58
2023-04-01T06:28:39.314Z,94978.52
2023-04-01T06:31:33.944Z,94983.38
2023-04-01T06:34:39.810Z,94981.29
2023-04-01T06:37:48.191Z,94979.19
2023-04-01T06:40:24.773Z,94980.82
2023-04-01T06:43:09.349Z,94980.70
2023-04-01T06:46:19.797Z,94987.20
2023-04-01T06:49:15.648Z,94986.22
2023-04-01T06:52:16.848Z,94986.89
2023-04-01T06:55:28.053Z,94994.52
2023-04-01T06:58:27.954Z,94998.02
2023-04-01T07:01:06.198Z,94996.73
2023-04-01T07:03:46.112Z,94989.86
2023-04-01T07:06:47.988Z,94989.48
2023-04-01T07:09:40.336Z,94990.39
2023-04-01T07:12:55.671Z,94990.52
2023-04-01T07:15:44.328Z,94995.28
2023-04-01T07:18:30.300Z,94994.73
2023-04-01T07:21:02.334Z,94992.69
2023-04-01T07:23:44.189Z,94994.21
2023-04-01T07:26:35.249Z,95001.31
2023-04-01T07:29:12.478Z,94999.25
2023-04-01T07:32:04.095Z,95000.42
2023-04-01T07:34:52.392Z,95006.45
2023-04-01T07:38:00.890Z,95006.48
2023-04-01T07:40:54.964Z,95005.02
2023-04-01T07:43:41.065Z,95005.13
2023-04-01T07:46:50.427Z,95003.16
2023-04-01T07:49:36.375Z,95002.08
2023-04-01T07:52:34.592Z,94996.85
2023-04-01T07:55:26.204Z,94993.18
2023-04-01T07:58:03.537Z,94990.36
2023-04-01T08:01:09.014Z,94992.85
2023-04-01T08:04:02.798Z,94994.34
2023-04-01T08:06:58.298Z,94990.98
2023-04-01T08:09:37.710Z,94987.92
2023-04-01T08:13:08.931Z,94987.41
2023-04-01T08:16:11.775Z,94991.71
2023-04-01T08:18:57.298Z,94987.64
2023-04-01T08:21:53.051Z,94986.28
2023-04-01T08:24:48.572Z,94989.12
2023-04-01T08:27:36.909Z,94993.19
2023-04-01T08:30:45.538Z,94997.38
2023-04-01T08:33:33.300Z,94991.53
2023-04-01T08:36:26.276Z,94990.84
2023-04-01T08:39:15.035Z,94986.61
2023-04-01T08:42:14.161Z,94983.89
2023-04-01T08:45:43.516Z,94981.38
2023-04-01T08:48:47.445Z,94969.52
2023-04-01T08:51:52.206Z,94958.98
2023-04-01T08:54:34.220Z,94943.31
2023-04-01T08:57:11.133Z,94940.96
2023-04-01T09:00:13.085Z,94952.64
2023-04-01T09:03:22.496Z,94962.23
2023-04-01T09:06:23.865Z,94960.88
2023-04-01T09:09:23.322Z,94964.21
2023-04-01T09:12:25.920Z,94963.21
2023-04-01T09:15:22.816Z,94958.00
2023-04-01T09:18:11.471Z,94947.17
2023-04-01T09:21:04.581Z,94950.03
2023-04-01T09:23:56.508Z,94954.81
2023-04-01T09:26:47.060Z,94949.86
2023-04-01T09:29:55.226Z,94945.65
2023-04-01T09:33:02.573Z,94935.90
2023-04-01T09:36:00.897Z,94932.77
2023-04-01T09:39:05.099Z,94934.28
2023-04-01T09:41:54.769Z,94934.88
2023-04-01T09:44:46.441Z,94924.17
2023-04-01T09:47:17.781Z,94923.22
2023-04-01T09:50:02.673Z,94926.18
2023-04-01T09:52:53.076Z,94918.16
2023-04-01T09:56:04.997Z,94911.48
2023-04-01T09:59:07.500Z,94904.27
2023-04-01T10:02:17.155Z,94909.84
2023-04-01T10:04:52.651Z,94912.53
2023-04-01T10:07:26.722Z,94919.56
2023-04-01T10:10:29.277Z,94918.98
2023-04-01T10:13:26.762Z,94915.56
2023-04-01T10:16:14.415Z,94918.34
2023-04-01T10:19:18.041Z,94917.38
2023-04-01T10:22:06.684Z,94925.52
2023-04-01T10:25:06.303Z,94925.30
2023-04-01T10:27:51.979Z,94927.27
2023-04-01T10:31:15.428Z,94928.39
2023-04-01T10:34:07.703Z,94928.73
2023-04-01T10:36:59.455Z,94924.26
2023-04-01T10:40:23.983Z,94924.48
2023-04-01T10:43:42.462Z,94920.23
2023-04-01T10:46:53.715Z,94918.29
2023-04-01T10:49:25.849Z,94916.56
2023-04-01T10:52:24.170Z,94915.94
2023-04-01T10:55:58.652Z,94918.52
2023-04-01T10:59:13.332Z,94916.13
2023-04-01T11:03:00.292Z,94913.05
2023-04-01T11:06:25.339Z,94915.52
2023-04-01T11:09:13.163Z,94906.91
2023-04-01T11:12:08.057Z,94901.74
2023-04-01T11:15:00.367Z,94898.84
2023-04-01T11:17:44.529Z,94896.43
2023-04-01T11:20:28.030Z,94896.23
2023-04-01T11:23:07.207Z,94888.16
2023-04-01T11:25:56.141Z,94892.08
2023-04-01T11:29:16.831Z,94890.13
2023-04-01T11:32:23.699Z,94890.60
2023-04-01T11:35:21.078Z,94892.95
2023-04-01T11:37:58.498Z,94893.21
2023-04-01T11:41:25.343Z,94891.33
2023-04-01T11:44:03.236Z,94891.58
2023-04-01T11:47:26.121Z,94891.70
2023-04-01T11:50:25.428Z,94888.30
2023-04-01T11:53:05.075Z,94883.81
2023-04-01T11:56:04.883Z,94884.15
2023-04-01T11:59:17.468Z,94882.07
2023-04-01T12:02:01.958Z,94881.42
2023-04-01T12:04:56.035Z,94876.98
2023-04-01T12:07:42.369Z,94881.09
2023-04-01T12:10:35.806Z,94875.55
2023-04-01T12:13:27.026Z,94872.01
2023-04-01T12:16:06.584Z,94870.61
2023-04-01T12:18:55.875Z,94871.21
2023-04-01T12:21:45.117Z,94872.54
2023-04-01T12:24:36.752Z,94872.77
2023-04-01T12:27:34.342Z,94871.84
2023-04-01T12:30:32.079Z,94868.96
2023-04-01T12:33:26.176Z,94870.33
2023-04-01T12:36:10.227Z,94867.67
2023-04-01T12:39:21.669Z,94868.07
2023-04-01T12:42:29.829Z,94867.53
2023-04-01T12:45:21.534Z,94868.54
2023-04-01T12:48:15.215Z,94865.59
2023-04-01T12:51:33.410Z,94865.13
2023-04-01T12:54:42.720Z,94864.20
2023-04-01T12:57:26.642Z,94864.73
2023-04-01T13:00:17.291Z,94865.58
2023-04-01T13:03:07.769Z,94860.48
2023-04-01T13:05:58.851Z,94858.88
2023-04-01T13:08:58.252Z,94861.67
2023-04-01T13:12:02.178Z,94860.33
2023-04-01T13:15:19.272Z,94857.13
2023-04-01T13:18:26.164Z,94853.90
2023-04-01T13:21:25.604Z,94857.79
2023-04-01T13:24:30.276Z,94859.58
2023-04-01T13:27:24.614Z,94854.05
2023-04-01T13:30:03.692Z,94858.02
2023-04-01T13:35:26.139Z,94862.54
2023-04-01T13:38:40.839Z,94867.11
2023-04-01T13:41:40.955Z,94869.77
2023-04-01T13:44:40.235Z,94869.68
2023-04-01T13:47:19.766Z,94864.23
2023-04-01T13:49:59.851Z,94863.06
2023-04-01T13:53:18.361Z,94865.17
2023-04-01T13:56:01.658Z,94865.70
2023-04-01T13:58:47.667Z,94869.20
2023-04-01T14:01:42.142Z,94868.64
2023-04-01T14:04:48.110Z,94865.71
2023-04-01T14:07:28.155Z,94862.75
2023-04-01T14:10:07.160Z,94861.27
2023-04-01T14:13:00.158Z,94862.02
2023-04-01T14:15:50.368Z,94866.30
2023-04-01T14:18:44.180Z,94867.34
2023-04-01T14:21:35.454Z,94862.41
2023-04-01T14:24:29.061Z,94859.16
2023-04-01T14:27:26.413Z,94860.79
2023-04-01T14:30:31.245Z,94861.33
2023-04-01T14:33:14.316Z,94863.48
2023-04-01T14:36:12.532Z,94867.68
2023-04-01T14:39:01.050Z,94861.13
2023-04-01T14:41:42.725Z,94859.15
2023-04-01T14:44:44.306Z,94861.27
2023-04-01T14:47:40.899Z,94870.75
2023-04-01T14:50:30.379Z,94879.84
2023-04-01T14:53:40.317Z,94889.29
2023-04-01T14:56:10.389Z,94892.25
2023-04-01T14:58:59.719Z,94894.86
2023-04-01T15:01:47.582Z,94887.90
2023-04-01T15:04:43.112Z,94886.20
2023-04-01T15:07:12.054Z,94883.79
2023-04-01T15:09:45.305Z,94881.32
2023-04-01T15:12:34.802Z,94884.08
2023-04-01T15:15:37.361Z,94886.70
2023-04-01T15:18:22.016Z,94887.05
2023-04-01T15:20:58.381Z,94887.77
2023-04-01T15:23:37.319Z,94888.77
2023-04-01T15:26:35.216Z,94887.66
2023-04-01T15:29:13.238Z,94885.63
2023-04-01T15:32:00.371Z,94886.27
2023-04-01T15:35:09.391Z,94884.45
2023-04-01T15:38:05.086Z,94892.23
2023-04-01T15:40:52.889Z,94893.86
2023-04-01T15:43:27.442Z,94894.80
2023-04-01T15:46:13.311Z,94896.42
2023-04-01T15:49:06.945Z,94898.94
2023-04-01T15:51:52.394Z,94902.66
2023-04-01T15:55:01.233Z,94906.18
2023-04-01T15:57:37.293Z,94908.50
2023-04-01T16:00:32.670Z,94919.50
2023-04-01T16:03:05.580Z,94924.15
2023-04-01T16:05:36.614Z,94922.88
2023-04-01T16:08:37.090Z,94928.09
2023-04-01T16:11:43.151Z,94934.66
2023-04-01T16:15:04.848Z,94939.33
2023-04-01T16:17:48.217Z,94942.34
2023-04-01T16:20:29.425Z,94943.71
2023-04-01T16:23:13.944Z,94949.61
2023-04-01T16:26:01.371Z,94949.16
2023-04-01T16:28:47.491Z,94951.50
2023-04-01T16:31:37.260Z,94961.67
2023-04-01T16:34:27.807Z,94961.64
2023-04-01T16:37:24.675Z,94962.68
2023-04-01T16:40:27.025Z,94966.53
2023-04-01T16:43:20.509Z,94968.41
2023-04-01T16:46:08.841Z,94967.88
2023-04-01T16:49:11.400Z,94973.02
2023-04-01T16:51:58.762Z,94975.14
2023-04-01T16:54:44.128Z,94977.42
2023-04-01T16:57:29.555Z,94977.97
2023-04-01T17:00:40.225Z,94982.01
2023-04-01T17:03:19.988Z,94986.86
2023-04-01T17:06:11.855Z,94994.31
2023-04-01T17:08:59.261Z,94995.85
2023-04-01T17:11:47.734Z,94993.42
2023-04-01T17:14:36.098Z,94998.75
2023-04-01T17:17:32.213Z,94999.35
2023-04-01T17:20:17.857Z,95000.31
2023-04-01T17:23:12.071Z,94999.16
2023-04-01T17:26:09.782Z,95004.30
2023-04-01T17:28:49.503Z,95004.28
2023-04-01T17:31:28.557Z,95007.23
2023-04-01T17:34:07.197Z,95007.13
2023-04-01T17:37:17.955Z,95006.09
2023-04-01T17:40:02.556Z,95010.92
2023-04-01T17:42:39.262Z,95013.31
2023-04-01T17:45:32.001Z,95013.13
2023-04-01T17:48:14.077Z,95013.57
2023-04-01T17:51:01.659Z,95017.63
2023-04-01T17:53:53.252Z,95016.52
2023-04-01T17:56:52.245Z,95018.39
2023-04-01T17:59:47.554Z,95022.02
2023-04-01T18:02:40.564Z,95024.92
2023-04-01T18:05:16.964Z,95029.77
2023-04-01T18:07:54.876Z,95032.23
2023-04-01T18:10:36.730Z,95039.36
2023-04-01T18:13:25.417Z,95040.99
2023-04-01T18:16:20.066Z,95047.50
2023-04-01T18:19:02.554Z,95047.15
2023-04-01T18:21:43.139Z,95048.59
2023-04-01T18:24:35.782Z,95049.52
2023-04-01T18:27:17.219Z,95052.86
2023-04-01T18:30:14.907Z,95055.97
2023-04-01T18:33:24.720Z,95057.02
2023-04-01T18:36:16.070Z,95057.59
2023-04-01T18:39:10.255Z,95056.83
2023-04-01T18:42:25.720Z,95059.21
2023-04-01T18:45:24.310Z,95062.65
2023-04-01T18:48:15.544Z,95064.55
2023-04-01T18:51:06.227Z,95071.02
2023-04-01T18:53:51.297Z,95074.97
2023-04-01T18:56:27.659Z,95073.38
2023-04-01T18:59:24.379Z,95074.34
2023-04-01T19:02:22.389Z,95075.57
2023-04-01T19:05:07.678Z,95077.92
2023-04-01T19:07:50.876Z,95073.79
2023-04-01T19:10:42.536Z,95076.30
2023-04-01T19:13:41.973Z,95073.11
2023-04-01T19:16:29.660Z,95072.42
2023-04-01T19:19:08.512Z,95069.81
2023-04-01T19:21:49.673Z,95073.12
2023-04-01T19:24:38.310Z,95072.58
2023-04-01T19:27:08.000Z,95074.51
2023-04-01T19:29:49.289Z,95077.02
2023-04-01T19:32:40.350Z,95081.47
2023-04-01T19:35:22.692Z,95085.78
2023-04-01T19:38:24.068Z,95086.13
2023-04-01T19:41:33.823Z,95087.14
2023-04-01T19:44:16.124Z,95092.46
2023-04-01T19:46:57.230Z,95091.27
2023-04-01T19:50:05.503Z,95089.73
2023-04-01T19:52:42.845Z,95093.59
2023-04-01T19:55:29.416Z,95089.38
2023-04-01T19:58:18.599Z,95086.27
2023-04-01T20:00:55.629Z,95086.26
2023-04-01T20:03:33.276Z,95090.30
2023-04-01T20:06:32.565Z,95084.94
2023-04-01T20:09:56.206Z,95085.84
2023-04-01T20:12:57.015Z,95087.38
2023-04-01T20:15:37.229Z,95085.99
2023-04-01T20:18:22.102Z,95085.74
2023-04-01T20:21:21.048Z,95089.41
2023-04-01T20:24:09.146Z,95088.23
2023-04-01T20:26:40.888Z,95088.23
2023-04-01T20:29:23.937Z,95089.61
2023-04-01T20:32:42.741Z,95097.45
2023-04-01T20:35:38.785Z,95096.36
2023-04-01T20:38:37.384Z,95102.42
2023-04-01T20:41:16.006Z,95099.57
2023-04-01T20:43:55.367Z,95099.10
2023-04-01T20:46:29.480Z,95101.01
2023-04-01T20:49:24.867Z,95100.58
2023-04-01T20:52:19.435Z,95101.63
2023-04-01T20:55:10.921Z,95103.86
2023-04-01T20:57:53.741Z,95103.69
2023-04-01T21:00:49.814Z,95105.23
2023-04-01T21:03:23.346Z,95105.55
2023-04-01T21:06:20.615Z,95109.26
2023-04-01T21:09:13.718Z,95109.94
2023-04-01T21:11:46.915Z,95111.52
2023-04-01T21:14:46.505Z,95112.21
2023-04-01T21:17:31.654Z,95112.08
2023-04-01T21:20:48.660Z,95113.39
2023-04-01T21:23:39.626Z,95114.15
2023-04-01T21:26:44.945Z,95115.45
2023-04-01T21:29:35.949Z,95120.01
2023-04-01T21:32:23.070Z,95122.21
2023-04-01T21:35:12.911Z,95123.23
2023-04-01T21:37:49.157Z,95128.86
2023-04-01T21:40:34.544Z,95130.63
2023-04-01T21:43:11.201Z,95131.85
2023-04-01T21:46:05.761Z,95130.60
2023-04-01T21:48:55.264Z,95130.20
2023-04-01T21:52:12.328Z,95129.40
2023-04-01T21:55:19.416Z,95134.41
2023-04-01T21:58:10.934Z,95132.41
2023-04-01T22:00:44.331Z,95133.73
2023-04-01T22:03:27.297Z,95132.48
2023-04-01T22:06:15.426Z,95134.44
2023-04-01T22:08:59.944Z,95136.81
2023-04-01T22:11:51.103Z,95132.50
2023-04-01T22:14:38.066Z,95130.75
2023-04-01T22:17:39.838Z,95131.05
2023-04-01T22:20:28.598Z,95133.13
2023-04-01T22:23:29.611Z,95133.61
2023-04-01T22:26:09.272Z,95139.84
2023-04-01T22:28:45.463Z,95136.98
2023-04-01T22:31:22.442Z,95135.60
2023-04-01T22:34:18.795Z,95140.13
2023-04-01T22:37:16.144Z,95139.92
2023-04-01T22:40:02.853Z,95138.89
2023-04-01T22:42:54.518Z,95140.63
2023-04-01T22:45:38.234Z,95141.61
2023-04-01T22:48:22.720Z,95141.46
2023-04-01T22:51:13.821Z,95145.39
2023-04-01T22:53:59.679Z,95146.21
2023-04-01T22:56:59.174Z,95150.88
2023-04-01T22:59:40.792Z,95149.23
2023-04-01T23:02:28.242Z,95151.42
2023-04-01T23:05:02.735Z,95152.19
2023-04-01T23:07:50.827Z,95148.95
2023-04-01T23:10:37.678Z,95154.46
2023-04-01T23:13:19.433Z,95159.41
2023-04-01T23:15:49.462Z,95160.93
2023-04-01T23:18:22.541Z,95161.76
2023-04-01T23:21:10.426Z,95159.48
2023-04-01T23:23:55.779Z,95162.42
2023-04-01T23:26:53.021Z,95160.40
2023-04-01T23:29:24.145Z,95170.38
2023-04-01T23:32:04.387Z,95174.20
2023-04-01T23:34:38.040Z,95169.66
2023-04-01T23:37:13.719Z,95171.62
2023-04-01T23:39:50.213Z,95172.44
2023-04-01T23:42:32.885Z,95168.53
2023-04-01T23:45:15.090Z,95175.23
2023-04-01T23:47:47.383Z,95170.40
2023-04-01T23:50:24.817Z,95169.13
2023-04-01T23:53:04.992Z,95174.81
2023-04-01T23:55:37.196Z,95177.09
2023-04-01T23:58:08.355Z,95173.17
